createdAt,value
2019-05-18T00:01:32.228Z,21.62
2019-05-18T00:04:38.744Z,21.40
2019-05-18T00:07:47.248Z,21.75
2019-05-18T00:10:53.709Z,20.32
2019-05-18T00:14:00.365Z,20.68
2019-05-18T00:17:09.525Z,21.05
2019-05-18T00:20:16.509Z,21.20
2019-05-18T00:23:23.145Z,20.65
2019-05-18T00:26:29.608Z,21.73
2019-05-18T00:29:36.032Z,20.72
2019-05-18T00:32:45.386Z,22.10
2019-05-18T00:35:52.855Z,23.32
2019-05-18T00:39:00.389Z,22.82
2019-05-18T00:42:07.080Z,20.55
2019-05-18T00:45:14.231Z,20.43
2019-05-18T00:48:20.881Z,21.55
2019-05-18T00:51:27.430Z,20.25
2019-05-18T00:54:34.045Z,20.35
2019-05-18T00:57:40.568Z,21.15
2019-05-18T01:00:49.464Z,20.35
2019-05-18T01:03:55.959Z,23.25
2019-05-18T01:07:02.410Z,22.77
2019-05-18T01:10:09.646Z,23.32
2019-05-18T01:13:16.315Z,22.70
2019-05-18T01:16:22.798Z,22.15
2019-05-18T01:19:29.402Z,23.05
2019-05-18T01:22:35.879Z,21.30
2019-05-18T01:25:42.327Z,22.85
2019-05-18T01:28:49.244Z,21.77
2019-05-18T01:31:55.627Z,21.10
2019-05-18T01:35:02.139Z,22.15
2019-05-18T01:38:08.764Z,20.65
2019-05-18T01:41:15.511Z,24.15
2019-05-18T01:44:22.116Z,21.23
2019-05-18T01:47:30.112Z,21.30
2019-05-18T01:50:36.511Z,26.90
2019-05-18T01:53:45.754Z,21.60
2019-05-18T01:56:51.415Z,22.45
2019-05-18T01:59:57.897Z,22.85
2019-05-18T02:03:04.717Z,24.65
2019-05-18T02:06:11.177Z,22.17
2019-05-18T02:09:17.617Z,21.15
2019-05-18T02:12:24.287Z,20.90
2019-05-18T02:15:30.756Z,21.85
2019-05-18T02:18:37.334Z,22.27
2019-05-18T02:21:44.293Z,24.18
2019-05-18T02:24:50.783Z,20.80
2019-05-18T02:27:57.276Z,21.40
2019-05-18T02:31:03.754Z,22.32
2019-05-18T02:34:10.267Z,21.50
2019-05-18T02:37:16.690Z,26.42
2019-05-18T02:40:24.092Z,22.30
2019-05-18T02:43:31.666Z,21.90
2019-05-18T02:46:38.298Z,21.12
2019-05-18T02:49:45.174Z,21.48
2019-05-18T02:52:51.884Z,21.85
2019-05-18T02:55:58.357Z,22.55
2019-05-18T02:59:04.910Z,21.40
2019-05-18T03:02:11.455Z,22.25
2019-05-18T03:05:18.119Z,22.25
2019-05-18T03:08:24.725Z,25.05
2019-05-18T03:11:31.182Z,26.27
2019-05-18T03:14:37.708Z,28.73
2019-05-18T03:17:45.230Z,27.67
2019-05-18T03:20:51.843Z,27.30
2019-05-18T03:23:58.299Z,22.65
2019-05-18T03:27:04.873Z,25.05
2019-05-18T03:30:12.090Z,23.30
2019-05-18T03:33:18.678Z,23.73
2019-05-18T03:36:25.141Z,24.55
2019-05-18T03:39:32.712Z,24.23
2019-05-18T03:42:39.053Z,22.70
2019-05-18T03:45:47.368Z,23.55
2019-05-18T03:48:53.740Z,21.93
2019-05-18T03:52:00.301Z,24.60
2019-05-18T03:55:07.018Z,34.70
2019-05-18T03:58:13.572Z,27.25
2019-05-18T04:01:20.041Z,27.02
2019-05-18T04:04:26.701Z,24.10
2019-05-18T04:07:33.076Z,26.85
2019-05-18T04:10:39.488Z,26.23
2019-05-18T04:13:47.904Z,23.67
2019-05-18T04:16:57.899Z,23.73
2019-05-18T04:20:04.589Z,23.80
2019-05-18T04:23:11.008Z,22.37
2019-05-18T04:26:17.446Z,23.40
2019-05-18T04:29:23.872Z,26.02
2019-05-18T04:32:30.367Z,25.60
2019-05-18T04:35:38.923Z,24.32
2019-05-18T04:38:45.829Z,29.72
2019-05-18T04:41:52.291Z,27.80
2019-05-18T04:44:58.746Z,27.73
2019-05-18T04:48:05.385Z,27.95
2019-05-18T04:51:12.059Z,29.63
2019-05-18T04:54:18.574Z,23.05
2019-05-18T04:57:25.099Z,38.78
2019-05-18T05:00:31.573Z,36.60
2019-05-18T05:03:38.016Z,28.10
2019-05-18T05:06:44.908Z,29.20
2019-05-18T05:09:51.532Z,24.85
2019-05-18T05:12:57.962Z,29.67
2019-05-18T05:16:04.474Z,27.02
2019-05-18T05:19:11.121Z,27.40
2019-05-18T05:22:17.590Z,32.83
2019-05-18T05:25:24.143Z,30.72
2019-05-18T05:28:30.717Z,26.12
2019-05-18T05:31:37.385Z,25.62
2019-05-18T05:34:46.504Z,27.20
2019-05-18T05:37:53.017Z,27.65
2019-05-18T05:40:59.479Z,28.92
2019-05-18T05:44:06.026Z,38.15
2019-05-18T05:47:12.523Z,30.00
2019-05-18T05:50:34.803Z,24.55
2019-05-18T05:53:28.458Z,27.20
2019-05-18T05:56:34.899Z,26.42
2019-05-18T05:59:41.603Z,29.30
2019-05-18T06:02:48.069Z,26.45
2019-05-18T06:05:54.537Z,29.77
2019-05-18T06:09:02.212Z,23.62
2019-05-18T06:12:09.011Z,24.02
2019-05-18T06:15:15.989Z,21.50
2019-05-18T06:18:22.529Z,23.50
2019-05-18T06:21:29.026Z,21.70
2019-05-18T06:24:36.420Z,23.57
2019-05-18T06:27:44.371Z,23.38
2019-05-18T06:30:50.685Z,27.27
2019-05-18T06:33:57.373Z,21.50
2019-05-18T06:37:04.004Z,23.10
2019-05-18T06:40:11.037Z,25.02
2019-05-18T06:43:17.670Z,27.27
2019-05-18T06:46:24.340Z,22.95
2019-05-18T06:49:30.782Z,22.82
2019-05-18T06:52:38.027Z,22.50
2019-05-18T06:55:45.529Z,21.23
2019-05-18T06:58:53.591Z,25.08
2019-05-18T07:02:06.945Z,25.57
2019-05-18T07:05:13.582Z,22.75
2019-05-18T07:08:20.088Z,24.60
2019-05-18T07:11:30.259Z,24.40
2019-05-18T07:14:36.792Z,22.27
2019-05-18T07:17:45.197Z,21.70
2019-05-18T07:20:52.415Z,22.90
2019-05-18T07:23:58.924Z,24.57
2019-05-18T07:27:05.456Z,22.70
2019-05-18T07:30:12.697Z,21.48
2019-05-18T07:33:19.391Z,20.40
2019-05-18T07:36:25.917Z,21.42
2019-05-18T07:39:35.504Z,22.00
2019-05-18T07:42:40.658Z,22.55
2019-05-18T07:45:49.866Z,22.05
2019-05-18T07:48:59.625Z,21.68
2019-05-18T07:52:06.206Z,20.30
2019-05-18T07:55:14.212Z,23.35
2019-05-18T07:58:20.721Z,22.22
2019-05-18T08:01:27.260Z,24.27
2019-05-18T08:04:33.690Z,20.90
2019-05-18T08:07:40.234Z,21.10
2019-05-18T08:10:49.014Z,20.32
2019-05-18T08:13:55.967Z,20.52
2019-05-18T08:17:02.525Z,21.93
2019-05-18T08:20:12.696Z,22.13
2019-05-18T08:23:19.194Z,22.80
2019-05-18T08:26:25.789Z,21.77
2019-05-18T08:29:32.347Z,23.80
2019-05-18T08:32:38.927Z,25.72
2019-05-18T08:35:45.691Z,20.60
2019-05-18T08:38:52.079Z,22.40
2019-05-18T08:42:00.831Z,21.00
2019-05-18T08:45:08.422Z,22.02
2019-05-18T08:48:15.073Z,23.50
2019-05-18T08:51:21.618Z,22.75
2019-05-18T08:54:28.143Z,21.45
2019-05-18T08:57:34.879Z,20.45
2019-05-18T09:00:41.372Z,25.60
2019-05-18T09:03:47.853Z,21.93
2019-05-18T09:06:54.434Z,21.10
2019-05-18T09:10:02.042Z,20.72
2019-05-18T09:13:09.684Z,20.77
2019-05-18T09:16:17.128Z,22.45
2019-05-18T09:19:23.564Z,21.10
2019-05-18T09:22:30.162Z,29.72
2019-05-18T09:25:36.813Z,22.90
2019-05-18T09:28:45.443Z,24.80
2019-05-18T09:31:54.439Z,23.65
2019-05-18T09:35:01.116Z,25.12
2019-05-18T09:38:10.762Z,31.52
2019-05-18T09:41:17.204Z,24.57
2019-05-18T09:44:23.753Z,22.42
2019-05-18T09:47:30.137Z,22.85
2019-05-18T09:50:36.566Z,20.97
2019-05-18T09:53:51.299Z,23.95
2019-05-18T09:56:51.457Z,24.87
2019-05-18T09:59:58.384Z,22.45
2019-05-18T10:03:04.888Z,24.90
2019-05-18T10:06:11.355Z,23.45
2019-05-18T10:09:18.018Z,20.82
2019-05-18T10:12:25.778Z,20.02
2019-05-18T10:15:32.140Z,23.20
2019-05-18T10:18:38.883Z,24.15
2019-05-18T10:21:47.826Z,24.37
2019-05-18T10:24:54.288Z,23.70
2019-05-18T10:28:00.744Z,25.60
2019-05-18T10:31:07.537Z,22.60
2019-05-18T10:34:13.992Z,23.80
2019-05-18T10:37:20.472Z,20.60
2019-05-18T10:40:26.980Z,20.23
2019-05-18T10:43:35.367Z,24.77
2019-05-18T10:46:41.924Z,20.37
2019-05-18T10:49:50.096Z,21.45
2019-05-18T10:52:56.772Z,21.93
2019-05-18T10:56:03.377Z,22.62
2019-05-18T10:59:09.842Z,26.20
2019-05-18T11:02:16.541Z,20.40
2019-05-18T11:05:23.669Z,30.15
2019-05-18T11:08:32.473Z,20.70
2019-05-18T11:11:47.494Z,22.25
2019-05-18T11:14:49.314Z,22.70
2019-05-18T11:17:55.835Z,21.93
2019-05-18T11:21:03.673Z,22.25
2019-05-18T11:24:10.273Z,20.82
2019-05-18T11:27:16.791Z,20.80
2019-05-18T11:30:23.627Z,22.42
2019-05-18T11:33:30.194Z,22.95
2019-05-18T11:36:36.815Z,21.27
2019-05-18T11:39:49.404Z,21.77
2019-05-18T11:42:57.540Z,22.35
2019-05-18T11:46:04.096Z,21.30
2019-05-18T11:49:10.626Z,23.90
2019-05-18T11:52:19.541Z,22.42
2019-05-18T11:55:26.668Z,23.42
2019-05-18T11:58:33.226Z,21.42
2019-05-18T12:01:39.675Z,27.17
2019-05-18T12:04:48.837Z,21.00
2019-05-18T12:07:55.398Z,21.90
2019-05-18T12:11:01.914Z,23.20
2019-05-18T12:14:08.454Z,20.40
2019-05-18T12:17:15.082Z,21.37
2019-05-18T12:20:22.961Z,20.55
2019-05-18T12:23:29.496Z,24.43
2019-05-18T12:26:35.982Z,24.18
2019-05-18T12:29:42.487Z,23.60
2019-05-18T12:32:49.200Z,23.32
2019-05-18T12:35:55.646Z,31.68
2019-05-18T12:39:02.107Z,21.65
2019-05-18T12:42:09.903Z,20.43
2019-05-18T12:45:18.097Z,24.27
2019-05-18T12:48:24.655Z,21.65
2019-05-18T12:51:31.283Z,23.95
2019-05-18T12:54:46.041Z,23.35
2019-05-18T12:57:49.382Z,20.30
2019-05-18T13:00:55.830Z,20.72
2019-05-18T13:04:02.269Z,22.40
2019-05-18T13:07:09.752Z,23.70
2019-05-18T13:10:18.254Z,23.95
2019-05-18T13:13:24.881Z,21.90
2019-05-18T13:16:31.381Z,20.35
2019-05-18T13:19:39.698Z,23.10
2019-05-18T13:22:46.568Z,20.00
2019-05-18T13:25:53.147Z,19.82
2019-05-18T13:29:02.600Z,20.23
2019-05-18T13:32:09.059Z,23.30
2019-05-18T13:35:16.466Z,21.17
2019-05-18T13:38:22.918Z,20.20
2019-05-18T13:41:29.410Z,20.40
2019-05-18T13:44:38.193Z,20.77
2019-05-18T13:47:46.535Z,20.95
2019-05-18T13:50:54.170Z,22.22
2019-05-18T13:54:00.649Z,22.35
2019-05-18T13:57:07.268Z,22.65
2019-05-18T14:00:14.606Z,21.20
2019-05-18T14:03:21.188Z,20.75
2019-05-18T14:06:27.618Z,20.80
2019-05-18T14:09:39.332Z,20.15
2019-05-18T14:12:50.050Z,21.65
2019-05-18T14:15:56.565Z,19.65
2019-05-18T14:19:03.127Z,20.12
2019-05-18T14:22:09.606Z,20.05
2019-05-18T14:25:19.801Z,21.62
2019-05-18T14:28:24.978Z,19.00
2019-05-18T14:31:31.518Z,20.12
2019-05-18T14:34:38.035Z,19.05
2019-05-18T14:37:45.852Z,18.70
2019-05-18T14:40:52.323Z,20.43
2019-05-18T14:43:58.779Z,19.70
2019-05-18T14:47:05.711Z,19.42
2019-05-18T14:50:12.627Z,19.60
2019-05-18T14:53:19.059Z,19.67
2019-05-18T14:56:25.508Z,22.98
2019-05-18T14:59:32.135Z,21.42
2019-05-18T15:02:40.220Z,20.35
2019-05-18T15:05:49.031Z,20.35
2019-05-18T15:08:55.645Z,21.80
2019-05-18T15:12:02.497Z,20.10
2019-05-18T15:15:10.692Z,21.02
2019-05-18T15:18:17.313Z,20.20
2019-05-18T15:21:25.173Z,20.52
2019-05-18T15:24:32.781Z,21.57
2019-05-18T15:27:39.312Z,18.90
2019-05-18T15:30:47.985Z,20.97
2019-05-18T15:33:54.579Z,20.08
2019-05-18T15:37:01.403Z,19.20
2019-05-18T15:40:09.103Z,22.62
2019-05-18T15:43:15.937Z,21.65
2019-05-18T15:46:22.424Z,21.48
2019-05-18T15:49:28.966Z,30.77
2019-05-18T15:52:38.836Z,19.80
2019-05-18T15:55:45.550Z,20.30
2019-05-18T15:58:52.261Z,20.32
2019-05-18T16:01:58.883Z,19.65
2019-05-18T16:05:06.174Z,20.77
2019-05-18T16:08:12.741Z,20.23
2019-05-18T16:11:19.158Z,19.85
2019-05-18T16:14:26.004Z,19.20
2019-05-18T16:17:39.430Z,20.88
2019-05-18T16:20:41.122Z,19.92
2019-05-18T16:23:47.745Z,20.35
2019-05-18T16:26:54.288Z,18.77
2019-05-18T16:30:00.842Z,20.62
2019-05-18T16:33:07.502Z,20.50
2019-05-18T16:36:14.470Z,20.12
2019-05-18T16:39:21.064Z,20.25
2019-05-18T16:42:27.823Z,20.55
2019-05-18T16:45:34.363Z,19.15
2019-05-18T16:48:45.084Z,19.92
2019-05-18T16:51:54.279Z,18.62
2019-05-18T16:55:00.971Z,19.42
2019-05-18T16:58:07.646Z,20.72
2019-05-18T17:01:14.196Z,19.57
2019-05-18T17:04:20.806Z,21.37
2019-05-18T17:07:27.612Z,21.35
2019-05-18T17:10:34.227Z,18.90
2019-05-18T17:13:40.702Z,19.10
2019-05-18T17:16:48.013Z,18.92
2019-05-18T17:19:57.252Z,21.45
2019-05-18T17:23:03.768Z,19.52
2019-05-18T17:26:10.457Z,19.40
2019-05-18T17:29:17.485Z,20.15
2019-05-18T17:32:24.039Z,19.50
2019-05-18T17:35:31.826Z,19.23
2019-05-18T17:38:38.312Z,23.40
2019-05-18T17:41:52.498Z,19.50
2019-05-18T17:44:59.915Z,21.55
2019-05-18T17:48:06.693Z,20.97
2019-05-18T17:51:13.539Z,20.77
2019-05-18T17:54:20.126Z,19.60
2019-05-18T17:57:26.682Z,21.07
2019-05-18T18:00:33.414Z,20.62
2019-05-18T18:03:39.995Z,21.50
2019-05-18T18:06:48.542Z,21.10
2019-05-18T18:09:55.056Z,20.30
2019-05-18T18:13:01.732Z,21.30
2019-05-18T18:16:08.872Z,23.15
2019-05-18T18:19:15.521Z,21.97
2019-05-18T18:22:23.894Z,21.70
2019-05-18T18:25:30.668Z,21.05
2019-05-18T18:28:37.172Z,21.25
2019-05-18T18:31:44.923Z,23.38
2019-05-18T18:34:53.776Z,20.75
2019-05-18T18:38:00.619Z,21.80
2019-05-18T18:41:07.136Z,21.65
2019-05-18T18:44:13.783Z,22.95
2019-05-18T18:47:20.296Z,28.10
2019-05-18T18:50:26.874Z,23.00
2019-05-18T18:53:33.501Z,28.52
2019-05-18T18:56:40.096Z,20.80
2019-05-18T18:59:48.826Z,20.77
2019-05-18T19:02:56.491Z,23.50
2019-05-18T19:06:03.132Z,23.95
2019-05-18T19:09:09.794Z,23.65
2019-05-18T19:12:16.204Z,22.05
2019-05-18T19:15:22.979Z,23.20
2019-05-18T19:18:29.460Z,23.05
2019-05-18T19:21:36.623Z,22.37
2019-05-18T19:24:45.497Z,24.72
2019-05-18T19:27:55.333Z,26.30
2019-05-18T19:31:00.353Z,28.12
2019-05-18T19:34:06.820Z,22.90
2019-05-18T19:37:13.293Z,22.87
2019-05-18T19:40:22.390Z,23.12
2019-05-18T19:43:28.833Z,22.48
2019-05-18T19:46:35.970Z,21.50
2019-05-18T19:49:43.724Z,28.15
2019-05-18T19:52:50.248Z,25.30
2019-05-18T19:55:56.747Z,25.85
2019-05-18T19:59:03.173Z,25.48
2019-05-18T20:02:10.144Z,21.87
2019-05-18T20:05:16.786Z,26.57
2019-05-18T20:08:23.235Z,26.27
2019-05-18T20:11:29.730Z,25.57
2019-05-18T20:14:36.239Z,24.98
2019-05-18T20:17:44.877Z,23.15
2019-05-18T20:20:51.467Z,29.18
2019-05-18T20:24:00.450Z,23.92
2019-05-18T20:27:06.955Z,23.50
2019-05-18T20:30:13.634Z,31.50
2019-05-18T20:33:20.034Z,37.63
2019-05-18T20:36:26.437Z,25.70
2019-05-18T20:39:32.899Z,28.07
2019-05-18T20:42:39.629Z,22.55
2019-05-18T20:45:48.557Z,24.25
2019-05-18T20:48:55.312Z,24.65
2019-05-18T20:52:01.762Z,23.77
2019-05-18T20:55:08.395Z,22.82
2019-05-18T20:58:14.882Z,29.95
2019-05-18T21:01:21.518Z,27.95
2019-05-18T21:04:28.069Z,30.32
2019-05-18T21:07:34.764Z,26.40
2019-05-18T21:10:41.220Z,26.45
2019-05-18T21:13:47.658Z,33.70
2019-05-18T21:16:55.326Z,31.45
2019-05-18T21:20:01.951Z,36.08
2019-05-18T21:23:11.753Z,49.80
2019-05-18T21:26:17.888Z,33.85
2019-05-18T21:29:24.353Z,28.73
2019-05-18T21:32:32.130Z,32.48
2019-05-18T21:35:38.533Z,29.07
2019-05-18T21:38:46.033Z,28.45
2019-05-18T21:41:52.574Z,36.28
2019-05-18T21:44:59.212Z,32.30
2019-05-18T21:48:05.833Z,30.15
2019-05-18T21:51:12.337Z,27.58
2019-05-18T21:54:18.823Z,33.53
2019-05-18T21:57:28.046Z,28.77
2019-05-18T22:00:34.668Z,28.40
2019-05-18T22:03:47.877Z,30.62
2019-05-18T22:06:52.172Z,31.55
2019-05-18T22:09:58.789Z,35.73
2019-05-18T22:13:05.170Z,35.17
2019-05-18T22:16:11.649Z,33.40
2019-05-18T22:19:20.276Z,27.15
2019-05-18T22:22:29.067Z,35.55
2019-05-18T22:25:36.005Z,30.48
2019-05-18T22:28:42.962Z,26.42
2019-05-18T22:31:49.476Z,33.50
2019-05-18T22:34:55.967Z,25.05
2019-05-18T22:38:02.564Z,29.25
2019-05-18T22:41:09.124Z,30.43
2019-05-18T22:44:15.820Z,31.85
2019-05-18T22:47:22.402Z,28.60
2019-05-18T22:50:28.954Z,34.85
2019-05-18T22:53:35.618Z,31.57
2019-05-18T22:56:42.080Z,36.40
2019-05-18T22:59:50.782Z,31.68
2019-05-18T23:02:57.274Z,29.20
2019-05-18T23:06:03.940Z,29.95
2019-05-18T23:09:10.602Z,32.08
2019-05-18T23:12:17.187Z,32.40
2019-05-18T23:15:23.680Z,31.80
2019-05-18T23:18:30.175Z,34.05
2019-05-18T23:21:38.309Z,33.60
2019-05-18T23:24:48.112Z,41.15
2019-05-18T23:27:54.603Z,31.70
2019-05-18T23:31:02.415Z,32.48
2019-05-18T23:34:11.016Z,32.17
2019-05-18T23:37:17.565Z,35.98
2019-05-18T23:40:24.144Z,30.27
2019-05-18T23:43:30.661Z,31.02
2019-05-18T23:46:37.699Z,34.60
2019-05-18T23:49:44.683Z,35.05
2019-05-18T23:52:51.215Z,35.78
2019-05-18T23:55:57.674Z,36.23
2019-05-18T23:59:04.390Z,33.18
